createdAt,value
2017-06-16T00:02:21.762Z,100703
2017-06-16T00:04:50.419Z,100712
2017-06-16T00:07:19.606Z,100708
2017-06-16T00:09:48.235Z,100704
2017-06-16T00:12:17.044Z,100698
2017-06-16T00:14:45.493Z,100695
2017-06-16T00:17:14.057Z,100695
2017-06-16T00:19:43.397Z,100700
2017-06-16T00:22:11.999Z,100707
2017-06-16T00:24:40.469Z,100702
2017-06-16T00:27:09.625Z,100714
2017-06-16T00:29:38.868Z,100711
2017-06-16T00:32:07.652Z,100712
2017-06-16T00:34:36.113Z,100713
2017-06-16T00:37:04.783Z,100716
2017-06-16T00:39:34.084Z,100705
2017-06-16T00:42:03.535Z,100697
2017-06-16T00:44:32.017Z,100713
2017-06-16T00:47:00.842Z,100715
2017-06-16T00:49:29.380Z,100715
2017-06-16T00:51:57.824Z,100710
2017-06-16T00:54:27.750Z,100727
2017-06-16T00:56:56.355Z,100721
2017-06-16T00:59:24.900Z,100724
2017-06-16T01:01:54.396Z,100728
2017-06-16T01:04:22.902Z,100729
2017-06-16T01:06:52.540Z,100734
2017-06-16T01:09:21.228Z,100724
2017-06-16T01:11:49.782Z,100729
2017-06-16T01:14:19.113Z,100732
2017-06-16T01:16:47.744Z,100735
2017-06-16T01:19:16.201Z,100740
2017-06-16T01:21:44.685Z,100736
2017-06-16T01:24:13.422Z,100742
2017-06-16T01:26:42.661Z,100745
2017-06-16T01:29:11.750Z,100737
2017-06-16T01:31:40.541Z,100747
2017-06-16T01:34:09.337Z,100738
2017-06-16T01:36:37.806Z,100731
2017-06-16T01:39:06.297Z,100744
2017-06-16T01:41:34.824Z,100756
2017-06-16T01:44:03.458Z,100773
2017-06-16T01:46:31.936Z,100761
2017-06-16T01:49:00.409Z,100757
2017-06-16T01:51:28.902Z,100749
2017-06-16T01:53:58.215Z,100742
2017-06-16T01:56:26.716Z,100744
2017-06-16T01:58:55.195Z,100755
2017-06-16T02:01:23.641Z,100753
2017-06-16T02:03:52.164Z,100759
2017-06-16T02:06:20.636Z,100753
2017-06-16T02:08:49.625Z,100733
2017-06-16T02:11:18.088Z,100753
2017-06-16T02:13:46.537Z,100732
2017-06-16T02:16:15.417Z,100715
2017-06-16T02:18:43.861Z,100739
2017-06-16T02:21:12.393Z,100722
2017-06-16T02:23:40.846Z,100720
2017-06-16T02:26:09.938Z,100725
2017-06-16T02:28:38.602Z,100729
2017-06-16T02:31:07.053Z,100750
2017-06-16T02:33:35.519Z,100746
2017-06-16T02:36:03.990Z,100745
2017-06-16T02:38:32.792Z,100763
2017-06-16T02:41:02.138Z,100759
2017-06-16T02:43:30.649Z,100768
2017-06-16T02:45:59.319Z,100768
2017-06-16T02:48:27.885Z,100765
2017-06-16T02:50:56.354Z,100781
2017-06-16T02:53:24.861Z,100773
2017-06-16T02:55:53.377Z,100776
2017-06-16T02:58:21.893Z,100757
2017-06-16T03:00:51.093Z,100766
2017-06-16T03:03:20.049Z,100763
2017-06-16T03:05:48.474Z,100770
2017-06-16T03:08:16.941Z,100777
2017-06-16T03:10:45.690Z,100780
2017-06-16T03:13:14.257Z,100782
2017-06-16T03:15:42.737Z,100789
2017-06-16T03:18:11.216Z,100781
2017-06-16T03:20:44.209Z,100786
2017-06-16T03:23:13.068Z,100787
2017-06-16T03:25:42.609Z,100778
2017-06-16T03:28:11.193Z,100781
2017-06-16T03:30:39.693Z,100772
2017-06-16T03:33:08.249Z,100786
2017-06-16T03:35:36.706Z,100788
2017-06-16T03:38:05.890Z,100791
2017-06-16T03:40:34.490Z,100801
2017-06-16T03:43:03.689Z,100796
2017-06-16T03:45:32.141Z,100791
2017-06-16T03:48:00.937Z,100800
2017-06-16T03:50:29.454Z,100797
2017-06-16T03:52:57.911Z,100808
2017-06-16T03:55:26.373Z,100806
2017-06-16T03:57:55.097Z,100800
2017-06-16T04:00:24.328Z,100815
2017-06-16T04:02:52.867Z,100818
2017-06-16T04:05:22.082Z,100814
2017-06-16T04:07:50.869Z,100823
2017-06-16T04:10:20.542Z,100821
2017-06-16T04:12:49.116Z,100818
2017-06-16T04:15:17.576Z,100821
2017-06-16T04:17:46.040Z,100819
2017-06-16T04:20:14.692Z,100815
2017-06-16T04:22:43.194Z,100818
2017-06-16T04:25:12.545Z,100812
2017-06-16T04:27:41.184Z,100804
2017-06-16T04:30:10.912Z,100818
2017-06-16T04:32:39.381Z,100820
2017-06-16T04:35:08.599Z,100819
2017-06-16T04:37:37.161Z,100821
2017-06-16T04:40:05.867Z,100831
2017-06-16T04:42:34.481Z,100821
2017-06-16T04:45:03.071Z,100836
2017-06-16T04:47:31.834Z,100835
2017-06-16T04:50:00.365Z,100838
2017-06-16T04:52:28.810Z,100831
2017-06-16T04:54:57.741Z,100830
2017-06-16T04:57:26.222Z,100830
2017-06-16T04:59:54.705Z,100830
2017-06-16T05:02:23.225Z,100838
2017-06-16T05:04:51.836Z,100843
2017-06-16T05:07:20.845Z,100847
2017-06-16T05:09:49.574Z,100838
2017-06-16T05:12:18.048Z,100848
2017-06-16T05:14:46.413Z,100847
2017-06-16T05:17:15.130Z,100848
2017-06-16T05:19:44.437Z,100853
2017-06-16T05:22:18.178Z,100856
2017-06-16T05:24:46.644Z,100863
2017-06-16T05:27:15.818Z,100859
2017-06-16T05:29:45.072Z,100856
2017-06-16T05:32:13.737Z,100862
2017-06-16T05:34:42.341Z,100862
2017-06-16T05:37:11.008Z,100862
2017-06-16T05:39:39.487Z,100862
2017-06-16T05:42:08.121Z,100859
2017-06-16T05:44:36.582Z,100862
2017-06-16T05:47:05.042Z,100856
2017-06-16T05:49:33.565Z,100865
2017-06-16T05:52:02.477Z,100873
2017-06-16T05:54:31.809Z,100870
2017-06-16T05:57:00.393Z,100872
2017-06-16T05:59:28.840Z,100874
2017-06-16T06:01:57.603Z,100873
2017-06-16T06:04:26.093Z,100890
2017-06-16T06:06:54.659Z,100885
2017-06-16T06:09:23.340Z,100882
2017-06-16T06:11:51.808Z,100881
2017-06-16T06:14:20.277Z,100882
2017-06-16T06:16:49.350Z,100892
2017-06-16T06:19:18.654Z,100881
2017-06-16T06:21:47.890Z,100899
2017-06-16T06:24:16.366Z,100897
2017-06-16T06:26:44.906Z,100903
2017-06-16T06:29:13.443Z,100898
2017-06-16T06:31:42.583Z,100911
2017-06-16T06:34:11.054Z,100908
2017-06-16T06:36:40.055Z,100911
2017-06-16T06:39:08.536Z,100902
2017-06-16T06:41:37.045Z,100900
2017-06-16T06:44:06.525Z,100904
2017-06-16T06:46:35.030Z,100906
2017-06-16T06:49:04.272Z,100911
2017-06-16T06:51:32.737Z,100918
2017-06-16T06:54:01.197Z,100902
2017-06-16T06:56:29.737Z,100901
2017-06-16T06:58:58.296Z,100903
2017-06-16T07:01:27.118Z,100906
2017-06-16T07:03:55.832Z,100910
2017-06-16T07:06:24.414Z,100911
2017-06-16T07:08:52.864Z,100918
2017-06-16T07:11:21.340Z,100917
2017-06-16T07:13:49.956Z,100910
2017-06-16T07:16:18.641Z,100920
2017-06-16T07:18:47.890Z,100916
2017-06-16T07:21:16.973Z,100926
2017-06-16T07:23:45.416Z,100932
2017-06-16T07:26:14.677Z,100931
2017-06-16T07:28:43.222Z,100925
2017-06-16T07:31:11.910Z,100937
2017-06-16T07:33:40.498Z,100934
2017-06-16T07:36:09.703Z,100929
2017-06-16T07:38:38.254Z,100930
2017-06-16T07:41:07.233Z,100930
2017-06-16T07:43:35.701Z,100920
2017-06-16T07:46:04.277Z,100924
2017-06-16T07:48:37.235Z,100928
2017-06-16T07:51:05.710Z,100925
2017-06-16T07:53:34.665Z,100919
2017-06-16T07:56:03.129Z,100935
2017-06-16T07:58:31.573Z,100927
2017-06-16T08:01:00.872Z,100931
2017-06-16T08:03:30.741Z,100936
2017-06-16T08:05:59.217Z,100943
2017-06-16T08:08:52.310Z,100939
2017-06-16T08:11:21.591Z,100953
2017-06-16T08:13:50.057Z,100958
2017-06-16T08:16:18.621Z,100960
2017-06-16T08:18:47.846Z,100944
2017-06-16T08:21:16.300Z,100947
2017-06-16T08:23:44.780Z,100951
2017-06-16T08:26:13.564Z,100967
2017-06-16T08:28:42.436Z,100973
2017-06-16T08:31:11.668Z,100955
2017-06-16T08:33:40.674Z,100962
2017-06-16T08:36:09.305Z,100963
2017-06-16T08:38:37.801Z,100961
2017-06-16T08:41:07.109Z,100959
2017-06-16T08:43:36.321Z,100971
2017-06-16T08:46:05.091Z,100974
2017-06-16T08:48:35.020Z,100979
2017-06-16T08:51:03.476Z,100985
2017-06-16T08:53:31.934Z,100978
2017-06-16T08:56:00.548Z,100980
2017-06-16T08:58:29.143Z,100979
2017-06-16T09:00:58.684Z,100979
2017-06-16T09:03:27.185Z,100965
2017-06-16T09:05:56.055Z,100990
2017-06-16T09:08:24.873Z,100999
2017-06-16T09:10:53.371Z,101002
2017-06-16T09:13:21.856Z,100985
2017-06-16T09:15:50.354Z,100995
2017-06-16T09:18:19.524Z,101022
2017-06-16T09:20:48.300Z,101038
2017-06-16T09:23:16.834Z,101006
2017-06-16T09:25:46.493Z,101017
2017-06-16T09:28:15.849Z,101000
2017-06-16T09:30:44.505Z,101014
2017-06-16T09:33:12.963Z,101017
2017-06-16T09:35:41.433Z,101016
2017-06-16T09:38:10.177Z,101001
2017-06-16T09:40:39.425Z,101023
2017-06-16T09:43:07.881Z,101023
2017-06-16T09:45:36.355Z,101022
2017-06-16T09:48:04.797Z,101022
2017-06-16T09:50:33.592Z,101026
2017-06-16T09:53:02.641Z,101037
2017-06-16T09:55:31.096Z,101029
2017-06-16T09:57:59.578Z,101016
2017-06-16T10:00:28.289Z,101022
2017-06-16T10:02:56.765Z,101014
2017-06-16T10:05:25.373Z,101022
2017-06-16T10:07:53.860Z,101021
2017-06-16T10:10:22.668Z,101028
2017-06-16T10:12:51.134Z,101023
2017-06-16T10:15:21.803Z,101037
2017-06-16T10:17:50.404Z,101021
2017-06-16T10:20:20.108Z,101031
2017-06-16T10:22:49.371Z,101029
2017-06-16T10:25:17.827Z,101031
2017-06-16T10:27:46.406Z,101031
2017-06-16T10:30:14.882Z,101029
2017-06-16T10:32:43.886Z,101042
2017-06-16T10:35:12.377Z,101043
2017-06-16T10:37:41.104Z,101043
2017-06-16T10:40:10.612Z,101018
2017-06-16T10:42:39.074Z,101031
2017-06-16T10:45:07.537Z,101016
2017-06-16T10:47:36.072Z,101022
2017-06-16T10:50:05.286Z,101036
2017-06-16T10:52:34.410Z,101026
2017-06-16T10:55:02.881Z,101027
2017-06-16T10:57:31.349Z,101037
2017-06-16T10:59:59.857Z,101032
2017-06-16T11:02:28.369Z,101046
2017-06-16T11:04:56.829Z,101043
2017-06-16T11:07:25.350Z,101027
2017-06-16T11:09:53.817Z,101035
2017-06-16T11:12:22.285Z,101029
2017-06-16T11:14:50.541Z,101046
2017-06-16T11:17:18.391Z,101048
2017-06-16T11:19:47.010Z,101054
2017-06-16T11:22:15.475Z,101047
2017-06-16T11:24:44.120Z,101044
2017-06-16T11:27:12.801Z,101069
2017-06-16T11:29:41.341Z,101069
2017-06-16T11:32:10.098Z,101076
2017-06-16T11:34:39.348Z,101075
2017-06-16T11:37:07.788Z,101094
2017-06-16T11:39:36.457Z,101071
2017-06-16T11:42:05.228Z,101070
2017-06-16T11:44:34.799Z,101063
2017-06-16T11:47:04.142Z,101083
2017-06-16T11:49:35.242Z,101095
2017-06-16T11:52:03.947Z,101081
2017-06-16T11:54:33.100Z,101076
2017-06-16T11:57:02.229Z,101087
2017-06-16T11:59:32.358Z,101096
2017-06-16T12:02:04.858Z,101093
2017-06-16T12:04:33.576Z,101086
2017-06-16T12:07:09.153Z,101087
2017-06-16T12:09:38.670Z,101119
2017-06-16T12:12:07.503Z,101117
2017-06-16T12:14:36.061Z,101107
2017-06-16T12:17:04.802Z,101125
2017-06-16T12:19:33.402Z,101117
2017-06-16T12:22:01.985Z,101111
2017-06-16T12:24:30.549Z,101088
2017-06-16T12:27:00.800Z,101119
2017-06-16T12:29:30.105Z,101138
2017-06-16T12:32:03.654Z,101110
2017-06-16T12:34:34.945Z,101125
2017-06-16T12:37:03.810Z,101123
2017-06-16T12:39:34.307Z,101132
2017-06-16T12:42:04.013Z,101118
2017-06-16T12:44:35.229Z,101133
2017-06-16T12:48:07.462Z,101139
2017-06-16T12:50:36.967Z,101148
2017-06-16T12:53:06.859Z,101138
2017-06-16T12:55:35.925Z,101149
2017-06-16T12:58:07.267Z,101131
2017-06-16T13:00:36.186Z,101139
2017-06-16T13:03:04.938Z,101153
2017-06-16T13:05:38.220Z,101154
2017-06-16T13:08:07.426Z,101150
2017-06-16T13:10:37.033Z,101159
2017-06-16T13:13:12.864Z,101152
2017-06-16T13:15:50.766Z,101166
2017-06-16T13:18:20.397Z,101151
2017-06-16T13:20:51.935Z,101164
2017-06-16T13:23:22.875Z,101173
2017-06-16T13:26:00.000Z,101167
2017-06-16T13:28:34.568Z,101160
2017-06-16T13:31:06.915Z,101164
2017-06-16T13:33:36.444Z,101164
2017-06-16T13:36:08.492Z,101159
2017-06-16T13:38:45.713Z,101178
2017-06-16T13:41:16.061Z,101164
2017-06-16T13:43:46.341Z,101171
2017-06-16T13:46:15.311Z,101167
2017-06-16T13:48:48.482Z,101176
2017-06-16T13:51:20.167Z,101190
2017-06-16T13:53:49.993Z,101180
2017-06-16T13:56:21.348Z,101187
2017-06-16T13:58:49.996Z,101198
2017-06-16T14:01:18.545Z,101181
2017-06-16T14:03:47.587Z,101192
2017-06-16T14:06:16.434Z,101199
2017-06-16T14:08:46.909Z,101193
2017-06-16T14:11:15.522Z,101207
2017-06-16T14:13:44.168Z,101210
2017-06-16T14:16:12.721Z,101210
2017-06-16T14:18:41.276Z,101220
2017-06-16T14:21:15.829Z,101217
2017-06-16T14:23:44.393Z,101242
2017-06-16T14:26:13.017Z,101223
2017-06-16T14:28:41.759Z,101220
2017-06-16T14:31:10.705Z,101225
2017-06-16T14:33:39.600Z,101210
2017-06-16T14:36:08.437Z,101226
2017-06-16T14:38:36.893Z,101216
2017-06-16T14:41:05.632Z,101215
2017-06-16T14:43:35.126Z,101236
2017-06-16T14:46:04.425Z,101232
2017-06-16T14:48:34.197Z,101237
2017-06-16T14:51:03.249Z,101234
2017-06-16T14:53:32.485Z,101241
2017-06-16T14:56:01.325Z,101255
2017-06-16T14:58:29.796Z,101249
2017-06-16T15:00:58.259Z,101255
2017-06-16T15:03:26.896Z,101256
2017-06-16T15:05:59.404Z,101254
2017-06-16T15:08:28.096Z,101249
2017-06-16T15:10:56.638Z,101257
2017-06-16T15:13:25.974Z,101260
2017-06-16T15:15:54.601Z,101263
2017-06-16T15:18:23.347Z,101274
2017-06-16T15:20:56.357Z,101260
2017-06-16T15:23:29.541Z,101267
2017-06-16T15:26:00.225Z,101268
2017-06-16T15:28:30.117Z,101272
2017-06-16T15:30:59.215Z,101258
2017-06-16T15:33:27.985Z,101256
2017-06-16T15:35:56.705Z,101258
2017-06-16T15:38:25.764Z,101263
2017-06-16T15:40:54.478Z,101265
2017-06-16T15:43:22.981Z,101271
2017-06-16T15:45:51.778Z,101271
2017-06-16T15:48:22.088Z,101272
2017-06-16T15:50:51.418Z,101271
2017-06-16T15:53:20.108Z,101263
2017-06-16T15:55:48.578Z,101267
2017-06-16T15:58:17.033Z,101274
2017-06-16T16:00:45.828Z,101271
2017-06-16T16:03:15.133Z,101262
2017-06-16T16:05:45.038Z,101274
2017-06-16T16:08:14.114Z,101275
2017-06-16T16:10:42.629Z,101279
2017-06-16T16:13:11.938Z,101282
2017-06-16T16:15:41.182Z,101263
2017-06-16T16:18:10.119Z,101282
2017-06-16T16:20:39.332Z,101290
2017-06-16T16:23:08.530Z,101279
2017-06-16T16:25:38.458Z,101292
2017-06-16T16:28:06.949Z,101272
2017-06-16T16:30:35.433Z,101283
2017-06-16T16:33:04.101Z,101287
2017-06-16T16:35:34.504Z,101289
2017-06-16T16:38:03.313Z,101294
2017-06-16T16:40:32.617Z,101291
2017-06-16T16:43:02.456Z,101295
2017-06-16T16:45:31.768Z,101302
2017-06-16T16:48:02.464Z,101299
2017-06-16T16:50:31.194Z,101313
2017-06-16T16:53:00.652Z,101314
2017-06-16T16:55:32.353Z,101315
2017-06-16T16:58:01.987Z,101307
2017-06-16T17:00:30.462Z,101302
2017-06-16T17:02:58.968Z,101310
2017-06-16T17:05:27.543Z,101300
2017-06-16T17:07:58.831Z,101314
2017-06-16T17:10:27.675Z,101315
2017-06-16T17:12:57.089Z,101318
2017-06-16T17:15:25.536Z,101319
2017-06-16T17:17:54.099Z,101315
2017-06-16T17:20:22.619Z,101315
2017-06-16T17:22:51.316Z,101330
2017-06-16T17:25:19.817Z,101338
2017-06-16T17:27:54.953Z,101337
2017-06-16T17:30:23.517Z,101332
2017-06-16T17:32:52.811Z,101329
2017-06-16T17:35:21.298Z,101335
2017-06-16T17:37:50.262Z,101333
2017-06-16T17:40:18.774Z,101340
2017-06-16T17:42:47.281Z,101338
2017-06-16T17:45:15.791Z,101352
2017-06-16T17:47:44.428Z,101349
2017-06-16T17:50:12.905Z,101352
2017-06-16T17:52:41.778Z,101362
2017-06-16T17:55:10.389Z,101350
2017-06-16T17:57:38.895Z,101370
2017-06-16T18:00:07.357Z,101368
2017-06-16T18:02:36.037Z,101367
2017-06-16T18:05:04.655Z,101373
2017-06-16T18:07:33.142Z,101376
2017-06-16T18:10:02.402Z,101367
2017-06-16T18:12:32.382Z,101371
2017-06-16T18:15:02.401Z,101374
2017-06-16T18:17:31.474Z,101369
2017-06-16T18:19:59.930Z,101369
2017-06-16T18:22:30.148Z,101374
2017-06-16T18:24:58.654Z,101382
2017-06-16T18:27:27.128Z,101371
2017-06-16T18:29:55.591Z,101373
2017-06-16T18:32:24.126Z,101381
2017-06-16T18:34:53.345Z,101380
2017-06-16T18:37:21.908Z,101387
2017-06-16T18:39:51.766Z,101378
2017-06-16T18:42:20.517Z,101380
2017-06-16T18:44:49.233Z,101379
2017-06-16T18:47:17.729Z,101392
2017-06-16T18:49:47.083Z,101394
2017-06-16T18:52:15.567Z,101387
2017-06-16T18:54:44.603Z,101391
2017-06-16T18:57:13.248Z,101378
2017-06-16T18:59:43.150Z,101400
2017-06-16T19:02:11.785Z,101394
2017-06-16T19:07:40.354Z,101399
2017-06-16T19:10:09.789Z,101402
2017-06-16T19:12:38.752Z,101410
2017-06-16T19:15:08.260Z,101406
2017-06-16T19:17:38.337Z,101409
2017-06-16T19:20:07.075Z,101418
2017-06-16T19:22:35.685Z,101412
2017-06-16T19:25:04.851Z,101419
2017-06-16T19:27:34.171Z,101425
2017-06-16T19:30:02.787Z,101427
2017-06-16T19:32:31.339Z,101426
2017-06-16T19:35:00.266Z,101427
2017-06-16T19:37:29.126Z,101425
2017-06-16T19:39:57.794Z,101435
2017-06-16T19:42:27.097Z,101430
2017-06-16T19:44:56.374Z,101438
2017-06-16T19:47:25.014Z,101422
2017-06-16T19:49:53.551Z,101425
2017-06-16T19:52:22.042Z,101425
2017-06-16T19:54:51.323Z,101437
2017-06-16T19:57:20.860Z,101438
2017-06-16T19:59:49.663Z,101438
2017-06-16T20:02:18.332Z,101438
2017-06-16T20:04:48.247Z,101444
2017-06-16T20:07:17.766Z,101443
2017-06-16T20:09:46.394Z,101459
2017-06-16T20:12:15.129Z,101450
2017-06-16T20:14:44.622Z,101458
2017-06-16T20:17:13.253Z,101448
2017-06-16T20:19:41.804Z,101456
2017-06-16T20:22:11.073Z,101451
2017-06-16T20:24:40.138Z,101453
2017-06-16T20:27:08.678Z,101467
2017-06-16T20:29:39.280Z,101479
2017-06-16T20:32:27.175Z,101463
2017-06-16T20:34:56.662Z,101475
2017-06-16T20:37:25.961Z,101469
2017-06-16T20:40:01.063Z,101474
2017-06-16T20:42:30.907Z,101473
2017-06-16T20:45:00.519Z,101469
2017-06-16T20:47:30.505Z,101478
2017-06-16T20:49:59.279Z,101481
2017-06-16T20:52:27.918Z,101480
2017-06-16T20:55:00.296Z,101471
2017-06-16T20:57:28.852Z,101481
2017-06-16T20:59:58.282Z,101486
2017-06-16T21:02:26.834Z,101488
2017-06-16T21:04:56.019Z,101386
2017-06-16T21:07:24.834Z,101484
2017-06-16T21:09:53.538Z,101487
2017-06-16T21:12:23.044Z,101492
2017-06-16T21:14:52.291Z,101489
2017-06-16T21:17:21.033Z,101494
2017-06-16T21:19:50.322Z,101492
2017-06-16T21:22:24.642Z,101501
2017-06-16T21:24:53.854Z,101500
2017-06-16T21:27:23.204Z,101506
2017-06-16T21:29:51.871Z,101498
2017-06-16T21:32:20.529Z,101504
2017-06-16T21:34:50.290Z,101513
2017-06-16T21:37:18.925Z,101511
2017-06-16T21:39:50.660Z,101508
2017-06-16T21:42:19.350Z,101515
2017-06-16T21:44:48.489Z,101520
2017-06-16T21:47:17.028Z,101518
2017-06-16T21:49:45.821Z,101518
2017-06-16T21:52:14.538Z,101505
2017-06-16T21:54:43.812Z,101524
2017-06-16T21:57:12.334Z,101524
2017-06-16T21:59:40.846Z,101525
2017-06-16T22:02:09.617Z,101525
2017-06-16T22:04:38.306Z,101522
2017-06-16T22:07:07.405Z,101521
2017-06-16T22:09:35.921Z,101525
2017-06-16T22:12:04.739Z,101516
2017-06-16T22:14:33.945Z,101525
2017-06-16T22:17:04.365Z,101527
2017-06-16T22:19:32.957Z,101525
2017-06-16T22:22:02.532Z,101524
2017-06-16T22:24:31.431Z,101521
2017-06-16T22:26:59.939Z,101527
2017-06-16T22:29:28.470Z,101528
2017-06-16T22:31:57.165Z,101530
2017-06-16T22:34:26.299Z,101537
2017-06-16T22:36:55.885Z,101521
2017-06-16T22:39:24.709Z,101529
2017-06-16T22:41:54.038Z,101529
2017-06-16T22:44:22.841Z,101526
2017-06-16T22:46:51.751Z,101534
2017-06-16T22:49:20.414Z,101527
2017-06-16T22:51:49.019Z,101530
2017-06-16T22:54:17.598Z,101539
2017-06-16T22:56:46.166Z,101545
2017-06-16T22:59:15.549Z,101533
2017-06-16T23:01:44.122Z,101544
2017-06-16T23:04:13.464Z,101543
2017-06-16T23:06:42.042Z,101545
2017-06-16T23:09:11.205Z,101549
2017-06-16T23:11:40.660Z,101542
2017-06-16T23:14:12.564Z,101549
2017-06-16T23:16:42.767Z,101550
2017-06-16T23:19:11.282Z,101549
2017-06-16T23:21:40.534Z,101549
2017-06-16T23:24:09.270Z,101548
2017-06-16T23:26:38.980Z,101541
2017-06-16T23:29:09.336Z,101543
2017-06-16T23:31:37.969Z,101547
2017-06-16T23:34:06.643Z,101547
2017-06-16T23:36:35.606Z,101544
2017-06-16T23:39:04.443Z,101549
2017-06-16T23:41:33.185Z,101548
2017-06-16T23:44:01.829Z,101547
2017-06-16T23:46:31.142Z,101535
2017-06-16T23:49:00.776Z,101551
2017-06-16T23:51:29.285Z,101551
2017-06-16T23:53:58.189Z,101557
2017-06-16T23:56:26.911Z,101554
2017-06-16T23:58:56.145Z,101555
